createdAt,value
2024-04-15T00:00:11.012Z,27.62
2024-04-15T00:03:05.882Z,27.92
2024-04-15T00:05:53.885Z,28.05
2024-04-15T00:08:41.738Z,28.05
2024-04-15T00:11:29.497Z,28.32
2024-04-15T00:14:17.370Z,27.59
2024-04-15T00:17:05.224Z,28.47
2024-04-15T00:19:53.443Z,28.61
2024-04-15T00:22:41.143Z,28.87
2024-04-15T00:25:29.006Z,28.51
2024-04-15T00:28:16.885Z,28.37
2024-04-15T00:31:04.915Z,28.48
2024-04-15T00:33:52.704Z,28.12
2024-04-15T00:36:40.567Z,27.92
2024-04-15T00:39:28.391Z,28.22
2024-04-15T00:42:16.328Z,28.93
2024-04-15T00:45:12.474Z,28.66
2024-04-15T00:48:02.041Z,28.41
2024-04-15T00:50:50.692Z,28.47
2024-04-15T00:53:38.819Z,28.48
2024-04-15T00:56:26.759Z,28.27
2024-04-15T00:59:14.793Z,28.72
2024-04-15T01:02:02.678Z,28.30
2024-04-15T01:04:50.896Z,28.66
2024-04-15T01:07:38.913Z,28.68
2024-04-15T01:10:26.687Z,27.94
2024-04-15T01:13:14.902Z,28.97
2024-04-15T01:16:03.077Z,28.41
2024-04-15T01:18:50.954Z,28.93
2024-04-15T01:21:38.697Z,28.53
2024-04-15T01:24:26.658Z,28.57
2024-04-15T01:27:14.370Z,28.77
2024-04-15T01:30:02.234Z,28.40
2024-04-15T01:32:50.520Z,28.72
2024-04-15T01:35:38.306Z,29.17
2024-04-15T01:38:26.217Z,28.68
2024-04-15T01:41:13.953Z,28.84
2024-04-15T01:44:01.842Z,28.45
2024-04-15T01:46:49.691Z,29.00
2024-04-15T01:49:37.515Z,28.49
2024-04-15T01:52:25.273Z,29.17
2024-04-15T01:55:13.071Z,28.56
2024-04-15T01:58:01.054Z,28.87
2024-04-15T02:00:48.958Z,28.97
2024-04-15T02:03:37.251Z,29.33
2024-04-15T02:06:25.073Z,29.12
2024-04-15T02:09:12.885Z,28.83
2024-04-15T02:12:02.453Z,28.98
2024-04-15T02:14:50.354Z,29.54
2024-04-15T02:17:38.259Z,29.05
2024-04-15T02:20:26.228Z,29.27
2024-04-15T02:23:13.983Z,29.64
2024-04-15T02:26:01.758Z,28.87
2024-04-15T02:28:49.450Z,29.25
2024-04-15T02:31:37.366Z,29.36
2024-04-15T02:34:25.233Z,29.34
2024-04-15T02:37:13.202Z,29.04
2024-04-15T02:40:01.228Z,28.70
2024-04-15T02:42:49.101Z,29.09
2024-04-15T02:45:36.821Z,29.28
2024-04-15T02:48:24.690Z,29.30
2024-04-15T02:51:12.774Z,29.18
2024-04-15T02:54:00.578Z,29.87
2024-04-15T02:56:48.447Z,29.24
2024-04-15T02:59:36.313Z,29.36
2024-04-15T03:02:24.106Z,28.81
2024-04-15T03:05:12.198Z,29.30
2024-04-15T03:07:59.960Z,29.10
2024-04-15T03:10:47.850Z,29.84
2024-04-15T03:13:35.752Z,29.03
2024-04-15T03:16:27.556Z,29.25
2024-04-15T03:19:17.382Z,29.49
2024-04-15T03:22:05.621Z,29.60
2024-04-15T03:24:53.455Z,29.72
2024-04-15T03:27:41.320Z,29.73
2024-04-15T03:30:29.306Z,29.59
2024-04-15T03:33:17.131Z,29.17
2024-04-15T03:36:05.010Z,29.52
2024-04-15T03:38:52.880Z,29.21
2024-04-15T03:41:40.722Z,29.03
2024-04-15T03:44:28.696Z,29.76
2024-04-15T03:47:16.491Z,29.68
2024-04-15T03:50:04.535Z,30.14
2024-04-15T03:52:52.327Z,30.15
2024-04-15T03:55:40.142Z,29.57
2024-04-15T03:58:28.053Z,29.91
2024-04-15T04:01:15.856Z,29.89
2024-04-15T04:04:04.033Z,30.77
2024-04-15T04:06:52.087Z,30.29
2024-04-15T04:09:39.916Z,30.29
2024-04-15T04:12:27.923Z,30.80
2024-04-15T04:15:15.820Z,30.64
2024-04-15T04:18:04.272Z,30.41
2024-04-15T04:20:53.567Z,30.48
2024-04-15T04:23:41.410Z,30.00
2024-04-15T04:26:30.370Z,30.54
2024-04-15T04:29:18.339Z,30.30
2024-04-15T04:32:06.468Z,30.09
2024-04-15T04:34:54.483Z,30.24
2024-04-15T04:37:43.019Z,30.26
2024-04-15T04:40:30.800Z,30.00
2024-04-15T04:43:18.597Z,30.29
2024-04-15T04:46:10.378Z,29.74
2024-04-15T04:48:58.240Z,29.48
2024-04-15T04:51:46.197Z,30.27
2024-04-15T04:54:33.983Z,30.03
2024-04-15T04:57:21.747Z,30.12
2024-04-15T05:00:09.756Z,30.05
2024-04-15T05:02:57.533Z,30.18
2024-04-15T05:05:45.270Z,29.69
2024-04-15T05:08:33.109Z,30.50
2024-04-15T05:11:21.052Z,30.23
2024-04-15T05:14:09.169Z,30.13
2024-04-15T05:16:56.923Z,29.69
2024-04-15T05:19:44.716Z,29.41
2024-04-15T05:22:32.560Z,29.78
2024-04-15T05:25:20.779Z,28.78
2024-04-15T05:28:08.620Z,29.42
2024-04-15T05:30:57.288Z,29.06
2024-04-15T05:33:45.251Z,29.27
2024-04-15T05:36:33.237Z,29.00
2024-04-15T05:39:21.054Z,29.11
2024-04-15T05:42:08.886Z,29.28
2024-04-15T05:44:56.590Z,29.33
2024-04-15T05:47:44.543Z,29.15
2024-04-15T05:50:32.472Z,29.03
2024-04-15T05:53:20.269Z,28.38
2024-04-15T05:56:08.061Z,28.22
2024-04-15T05:58:55.918Z,29.18
2024-04-15T06:01:43.793Z,28.76
2024-04-15T06:04:31.659Z,28.46
2024-04-15T06:07:20.129Z,28.46
2024-04-15T06:10:08.380Z,28.22
2024-04-15T06:12:56.362Z,28.28
2024-04-15T06:15:44.394Z,28.07
2024-04-15T06:18:32.265Z,28.88
2024-04-15T06:21:21.801Z,28.16
2024-04-15T06:24:09.715Z,27.67
2024-04-15T06:26:57.864Z,27.35
2024-04-15T06:29:45.646Z,27.83
2024-04-15T06:32:33.522Z,28.40
2024-04-15T06:35:21.373Z,27.52
2024-04-15T06:38:10.913Z,27.89
2024-04-15T06:40:59.111Z,27.95
2024-04-15T06:43:46.929Z,27.48
2024-04-15T06:46:35.911Z,28.02
2024-04-15T06:49:23.814Z,27.27
2024-04-15T06:52:11.572Z,27.29
2024-04-15T06:54:59.403Z,27.70
2024-04-15T06:57:47.265Z,28.09
2024-04-15T07:00:35.138Z,28.37
2024-04-15T07:03:23.045Z,29.14
2024-04-15T07:06:10.994Z,28.35
2024-04-15T07:08:58.813Z,28.41
2024-04-15T07:11:47.893Z,28.59
2024-04-15T07:14:35.699Z,27.73
2024-04-15T07:17:23.410Z,28.16
2024-04-15T07:20:11.375Z,28.18
2024-04-15T07:22:59.985Z,27.95
2024-04-15T07:25:47.737Z,27.73
2024-04-15T07:28:35.544Z,27.71
2024-04-15T07:31:23.803Z,28.53
2024-04-15T07:34:11.662Z,28.33
2024-04-15T07:36:59.554Z,27.71
2024-04-15T07:39:47.812Z,28.34
2024-04-15T07:42:42.597Z,27.27
2024-04-15T07:45:35.274Z,28.12
2024-04-15T07:48:23.153Z,28.48
2024-04-15T07:51:11.061Z,27.86
2024-04-15T07:53:58.958Z,27.45
2024-04-15T07:56:46.674Z,27.82
2024-04-15T07:59:34.490Z,27.76
2024-04-15T08:02:22.479Z,27.34
2024-04-15T08:05:11.022Z,27.24
2024-04-15T08:07:58.845Z,27.95
2024-04-15T08:10:47.148Z,27.40
2024-04-15T08:13:35.149Z,26.48
2024-04-15T08:16:23.046Z,26.26
2024-04-15T08:19:11.130Z,26.89
2024-04-15T08:21:58.923Z,27.06
2024-04-15T08:24:50.563Z,27.39
2024-04-15T08:27:42.210Z,26.82
2024-04-15T08:30:30.109Z,26.95
2024-04-15T08:33:18.377Z,26.96
2024-04-15T08:36:06.531Z,26.96
2024-04-15T08:38:54.255Z,27.02
2024-04-15T08:42:06.323Z,27.63
2024-04-15T08:44:54.732Z,26.82
2024-04-15T08:47:48.074Z,26.11
2024-04-15T08:50:35.819Z,26.25
2024-04-15T08:53:23.869Z,27.34
2024-04-15T08:56:14.640Z,26.54
2024-04-15T08:59:04.545Z,27.08
2024-04-15T09:01:54.492Z,26.34
2024-04-15T09:04:42.768Z,25.42
2024-04-15T09:07:30.886Z,25.82
2024-04-15T09:10:18.765Z,26.08
2024-04-15T09:13:09.098Z,26.31
2024-04-15T09:15:57.377Z,26.09
2024-04-15T09:18:46.385Z,26.20
2024-04-15T09:21:37.800Z,26.41
2024-04-15T09:24:26.376Z,25.86
2024-04-15T09:27:14.192Z,26.26
2024-04-15T09:30:02.946Z,26.40
2024-04-15T09:32:52.079Z,25.82
2024-04-15T09:35:40.495Z,26.57
2024-04-15T09:38:28.798Z,26.34
2024-04-15T09:41:17.101Z,25.05
2024-04-15T09:44:05.105Z,25.61
2024-04-15T09:46:53.456Z,25.58
2024-04-15T09:49:41.844Z,26.30
2024-04-15T09:52:31.675Z,25.61
2024-04-15T09:55:28.844Z,25.41
2024-04-15T09:58:19.197Z,25.82
2024-04-15T10:01:07.378Z,26.42
2024-04-15T10:03:56.942Z,25.96
2024-04-15T10:06:48.934Z,26.13
2024-04-15T10:09:36.931Z,26.07
2024-04-15T10:12:25.538Z,26.08
2024-04-15T10:15:13.636Z,25.07
2024-04-15T10:18:05.538Z,25.60
2024-04-15T10:20:53.968Z,25.93
2024-04-15T10:24:45.529Z,25.80
2024-04-15T10:27:33.363Z,23.91
2024-04-15T10:30:21.335Z,24.31
2024-04-15T10:33:10.069Z,23.01
2024-04-15T10:35:59.100Z,23.21
2024-04-15T10:38:50.731Z,22.28
2024-04-15T10:41:40.971Z,22.92
2024-04-15T10:44:28.888Z,23.03
2024-04-15T10:47:16.828Z,22.59
2024-04-15T10:50:05.216Z,23.01
2024-04-15T10:52:54.439Z,22.17
2024-04-15T10:55:44.069Z,22.08
2024-04-15T10:58:31.921Z,22.53
2024-04-15T11:01:19.827Z,22.47
2024-04-15T11:04:08.451Z,23.05
2024-04-15T11:06:58.652Z,22.87
2024-04-15T11:09:54.016Z,22.77
2024-04-15T11:12:42.383Z,22.40
2024-04-15T11:15:31.247Z,22.36
2024-04-15T11:18:21.557Z,21.96
2024-04-15T11:21:09.864Z,21.28
2024-04-15T11:23:58.624Z,22.37
2024-04-15T11:26:47.337Z,22.35
2024-04-15T11:29:41.587Z,22.15
2024-04-15T11:32:35.822Z,22.50
2024-04-15T11:35:24.051Z,22.27
2024-04-15T11:38:12.018Z,22.15
2024-04-15T11:40:59.839Z,22.69
2024-04-15T11:43:47.659Z,23.06
2024-04-15T11:46:39.920Z,23.74
2024-04-15T11:49:28.017Z,23.76
2024-04-15T11:52:18.707Z,23.02
2024-04-15T11:55:17.115Z,22.71
2024-04-15T11:58:04.925Z,22.72
2024-04-15T12:00:53.530Z,22.59
2024-04-15T12:03:41.933Z,23.44
2024-04-15T12:06:30.113Z,22.66
2024-04-15T12:09:21.408Z,22.68
2024-04-15T12:12:09.550Z,23.24
2024-04-15T12:14:57.805Z,23.23
2024-04-15T12:17:46.964Z,23.72
2024-04-15T12:20:34.728Z,23.47
2024-04-15T12:23:22.525Z,23.25
2024-04-15T12:26:10.476Z,21.95
2024-04-15T12:28:58.267Z,22.99
2024-04-15T12:31:47.459Z,22.48
2024-04-15T12:34:36.700Z,22.38
2024-04-15T12:37:24.658Z,22.38
2024-04-15T12:40:12.819Z,22.42
2024-04-15T12:43:00.689Z,22.13
2024-04-15T12:45:48.508Z,22.28
2024-04-15T12:48:36.545Z,23.72
2024-04-15T12:51:24.557Z,22.96
2024-04-15T12:54:12.335Z,22.14
2024-04-15T12:57:00.238Z,22.49
2024-04-15T12:59:48.147Z,21.42
2024-04-15T13:02:36.143Z,23.39
2024-04-15T13:05:24.128Z,22.87
2024-04-15T13:08:11.961Z,22.40
2024-04-15T13:11:00.548Z,22.80
2024-04-15T13:13:49.551Z,22.47
2024-04-15T13:16:37.328Z,23.03
2024-04-15T13:19:25.250Z,22.71
2024-04-15T13:22:13.216Z,22.51
2024-04-15T13:25:01.070Z,22.34
2024-04-15T13:27:48.835Z,22.09
2024-04-15T13:30:36.570Z,23.17
2024-04-15T13:33:24.791Z,22.59
2024-04-15T13:36:12.883Z,23.18
2024-04-15T13:39:00.832Z,23.16
2024-04-15T13:41:48.723Z,23.74
2024-04-15T13:44:36.786Z,23.77
2024-04-15T13:47:24.761Z,23.36
2024-04-15T13:50:12.581Z,22.79
2024-04-15T13:53:00.535Z,22.64
2024-04-15T13:55:48.765Z,23.65
2024-04-15T13:58:36.636Z,23.10
2024-04-15T14:01:26.127Z,23.25
2024-04-15T14:04:15.904Z,23.10
2024-04-15T14:07:03.942Z,23.03
2024-04-15T14:09:51.783Z,22.75
2024-04-15T14:12:40.478Z,23.19
2024-04-15T14:15:28.711Z,23.29
2024-04-15T14:18:16.510Z,23.46
2024-04-15T14:21:05.624Z,23.77
2024-04-15T14:23:53.536Z,23.52
2024-04-15T14:26:41.359Z,23.37
2024-04-15T14:29:29.280Z,23.09
2024-04-15T14:32:17.040Z,23.30
2024-04-15T14:35:04.998Z,23.63
2024-04-15T14:37:53.106Z,22.88
2024-04-15T14:40:40.879Z,23.50
2024-04-15T14:43:28.760Z,23.47
2024-04-15T14:46:17.768Z,23.18
2024-04-15T14:49:06.681Z,22.98
2024-04-15T14:51:54.410Z,23.37
2024-04-15T14:54:43.139Z,23.35
2024-04-15T14:57:31.065Z,23.16
2024-04-15T15:00:19.629Z,23.42
2024-04-15T15:03:07.439Z,23.40
2024-04-15T15:05:55.367Z,23.23
2024-04-15T15:08:45.712Z,23.49
2024-04-15T15:11:33.565Z,23.69
2024-04-15T15:14:21.420Z,22.65
2024-04-15T15:17:09.534Z,22.82
2024-04-15T15:19:59.466Z,22.82
2024-04-15T15:22:57.530Z,24.00
2024-04-15T15:25:51.434Z,24.36
2024-04-15T15:28:41.541Z,24.94
2024-04-15T15:31:30.309Z,24.74
2024-04-15T15:34:18.535Z,24.87
2024-04-15T15:37:10.284Z,25.11
2024-04-15T15:40:03.219Z,26.15
2024-04-15T15:42:57.057Z,26.07
2024-04-15T15:45:46.862Z,26.00
2024-04-15T15:48:38.946Z,27.00
2024-04-15T15:51:29.691Z,25.68
2024-04-15T15:54:30.440Z,25.62
2024-04-15T15:57:24.709Z,24.54
2024-04-15T16:00:13.206Z,23.25
2024-04-15T16:03:04.173Z,22.85
2024-04-15T16:05:52.744Z,22.98
2024-04-15T16:08:48.200Z,22.85
2024-04-15T16:11:46.696Z,22.85
2024-04-15T16:14:37.518Z,22.84
2024-04-15T16:17:25.896Z,22.30
2024-04-15T16:20:31.052Z,22.12
2024-04-15T16:23:19.009Z,22.38
2024-04-15T16:26:06.832Z,22.23
2024-04-15T16:28:54.709Z,22.38
2024-04-15T16:31:42.437Z,22.32
2024-04-15T16:34:30.181Z,21.90
2024-04-15T16:37:18.072Z,22.18
2024-04-15T16:40:06.223Z,22.38
2024-04-15T16:42:54.099Z,22.59
2024-04-15T16:45:42.109Z,22.31
2024-04-15T16:48:30.049Z,22.19
2024-04-15T16:51:17.738Z,22.22
2024-04-15T16:54:05.632Z,22.45
2024-04-15T16:56:53.897Z,22.15
2024-04-15T16:59:41.706Z,22.17
2024-04-15T17:02:29.568Z,22.49
2024-04-15T17:05:17.513Z,22.22
2024-04-15T17:08:08.586Z,22.38
2024-04-15T17:10:56.552Z,22.23
2024-04-15T17:13:47.136Z,22.32
2024-04-15T17:16:35.281Z,22.58
2024-04-15T17:19:23.481Z,22.43
2024-04-15T17:22:11.524Z,22.22
2024-04-15T17:25:00.059Z,22.50
2024-04-15T17:27:47.846Z,22.00
2024-04-15T17:30:35.677Z,22.11
2024-04-15T17:33:23.659Z,21.96
2024-04-15T17:36:11.764Z,21.97
2024-04-15T17:38:59.941Z,22.61
2024-04-15T17:41:47.833Z,22.13
2024-04-15T17:44:35.639Z,22.44
2024-04-15T17:47:23.553Z,22.35
2024-04-15T17:50:11.466Z,22.18
2024-04-15T17:52:59.218Z,22.12
2024-04-15T17:55:47.492Z,22.15
2024-04-15T17:58:35.404Z,22.09
2024-04-15T18:01:25.205Z,22.40
2024-04-15T18:04:13.311Z,22.26
2024-04-15T18:07:01.360Z,22.33
2024-04-15T18:09:49.183Z,21.93
2024-04-15T18:12:38.072Z,21.81
2024-04-15T18:15:26.089Z,21.94
2024-04-15T18:18:16.444Z,22.31
2024-04-15T18:21:04.366Z,22.43
2024-04-15T18:23:52.197Z,22.10
2024-04-15T18:26:40.042Z,22.08
2024-04-15T18:29:27.778Z,21.89
2024-04-15T18:32:15.631Z,21.84
2024-04-15T18:35:03.494Z,21.60
2024-04-15T18:37:51.340Z,22.42
2024-04-15T18:40:41.385Z,21.87
2024-04-15T18:43:29.643Z,21.93
2024-04-15T18:46:17.602Z,21.93
2024-04-15T18:49:05.498Z,22.17
2024-04-15T18:51:53.299Z,21.84
2024-04-15T18:54:41.421Z,22.07
2024-04-15T18:57:29.227Z,21.96
2024-04-15T19:00:17.062Z,22.39
2024-04-15T19:03:05.149Z,22.12
2024-04-15T19:05:53.451Z,22.27
2024-04-15T19:08:41.154Z,22.08
2024-04-15T19:11:28.990Z,22.07
2024-04-15T19:14:16.818Z,22.15
2024-04-15T19:17:05.064Z,22.45
2024-04-15T19:19:52.911Z,22.15
2024-04-15T19:22:40.671Z,22.52
2024-04-15T19:25:30.482Z,22.31
2024-04-15T19:28:18.649Z,22.30
2024-04-15T19:31:09.007Z,22.38
2024-04-15T19:33:58.491Z,22.17
2024-04-15T19:36:46.355Z,22.43
2024-04-15T19:39:34.317Z,22.32
2024-04-15T19:42:22.085Z,22.19
2024-04-15T19:45:11.667Z,22.24
2024-04-15T19:48:00.792Z,22.63
2024-04-15T19:50:48.731Z,22.56
2024-04-15T19:53:37.778Z,22.50
2024-04-15T19:56:25.587Z,22.63
2024-04-15T19:59:13.458Z,22.34
2024-04-15T20:02:01.202Z,22.56
2024-04-15T20:04:49.026Z,22.84
2024-04-15T20:07:37.443Z,22.40
2024-04-15T20:10:25.345Z,22.74
2024-04-15T20:13:13.211Z,22.67
2024-04-15T20:16:01.113Z,22.46
2024-04-15T20:19:02.431Z,22.96
2024-04-15T20:21:50.448Z,22.97
2024-04-15T20:24:38.604Z,22.85
2024-04-15T20:27:26.511Z,22.85
2024-04-15T20:30:14.249Z,22.59
2024-04-15T20:33:02.030Z,22.63
2024-04-15T20:35:49.902Z,22.78
2024-04-15T20:38:40.146Z,22.89
2024-04-15T20:41:28.000Z,22.87
2024-04-15T20:44:15.715Z,22.86
2024-04-15T20:47:03.543Z,22.52
2024-04-15T20:49:51.423Z,22.62
2024-04-15T20:52:39.278Z,22.82
2024-04-15T20:55:27.150Z,22.79
2024-04-15T20:58:15.072Z,22.82
2024-04-15T21:01:04.801Z,22.89
2024-04-15T21:03:53.171Z,23.00
2024-04-15T21:06:41.049Z,22.78
2024-04-15T21:09:28.876Z,22.58
2024-04-15T21:12:16.669Z,22.83
2024-04-15T21:15:04.569Z,22.76
2024-04-15T21:17:53.006Z,22.85
2024-04-15T21:20:40.941Z,23.08
2024-04-15T21:23:28.700Z,22.45
2024-04-15T21:26:16.601Z,23.02
2024-04-15T21:29:04.423Z,22.80
2024-04-15T21:31:52.218Z,22.83
2024-04-15T21:34:40.081Z,23.03
2024-04-15T21:37:27.956Z,23.14
2024-04-15T21:40:15.882Z,23.15
2024-04-15T21:43:03.963Z,22.81
2024-04-15T21:45:52.062Z,22.81
2024-04-15T21:48:40.070Z,22.94
2024-04-15T21:51:29.367Z,22.93
2024-04-15T21:54:17.188Z,23.03
2024-04-15T21:57:05.050Z,23.34
2024-04-15T21:59:52.842Z,22.85
2024-04-15T22:02:40.638Z,23.25
2024-04-15T22:05:28.598Z,22.75
2024-04-15T22:08:16.586Z,22.94
2024-04-15T22:11:05.533Z,22.97
2024-04-15T22:13:53.349Z,23.05
2024-04-15T22:16:41.179Z,23.17
2024-04-15T22:19:29.079Z,22.85
2024-04-15T22:22:17.134Z,23.25
2024-04-15T22:25:05.363Z,23.37
2024-04-15T22:27:53.939Z,22.87
2024-04-15T22:30:41.675Z,23.12
2024-04-15T22:33:29.668Z,22.80
2024-04-15T22:36:17.555Z,23.25
2024-04-15T22:39:05.415Z,23.25
2024-04-15T22:41:53.300Z,23.22
2024-04-15T22:44:41.372Z,23.30
2024-04-15T22:47:29.244Z,23.21
2024-04-15T22:50:17.252Z,23.42
2024-04-15T22:53:05.205Z,23.13
2024-04-15T22:55:56.886Z,23.39
2024-04-15T22:58:44.709Z,23.39
2024-04-15T23:01:32.745Z,23.55
2024-04-15T23:04:20.737Z,23.36
2024-04-15T23:07:08.694Z,23.66
2024-04-15T23:09:56.647Z,23.55
2024-04-15T23:12:44.403Z,23.70
2024-04-15T23:15:32.170Z,23.73
2024-04-15T23:18:20.020Z,23.58
2024-04-15T23:21:07.872Z,23.49
2024-04-15T23:23:55.823Z,23.49
2024-04-15T23:26:43.782Z,23.69
2024-04-15T23:29:31.523Z,23.83
2024-04-15T23:32:19.332Z,23.80
2024-04-15T23:35:07.191Z,23.41
2024-04-15T23:37:55.029Z,23.65
2024-04-15T23:40:42.888Z,23.69
2024-04-15T23:43:30.930Z,23.56
2024-04-15T23:46:37.796Z,24.04
2024-04-15T23:49:44.433Z,23.65
2024-04-15T23:52:50.983Z,23.71
2024-04-15T23:55:57.484Z,23.44
2024-04-15T23:58:45.433Z,23.27
